createdAt,value
2022-12-29T00:00:06.987Z,60.20
2022-12-29T00:02:33.906Z,60.10
2022-12-29T00:05:00.570Z,60.20
2022-12-29T00:07:27.201Z,60.10
2022-12-29T00:09:53.909Z,60.10
2022-12-29T00:12:20.538Z,60.10
2022-12-29T00:15:05.593Z,60.00
2022-12-29T00:17:32.170Z,60.00
2022-12-29T00:20:17.224Z,60.10
2022-12-29T00:23:03.087Z,60.00
2022-12-29T00:25:48.421Z,60.00
2022-12-29T00:28:33.752Z,59.90
2022-12-29T00:31:30.636Z,60.50
2022-12-29T00:34:15.869Z,59.90
2022-12-29T00:36:45.388Z,59.90
2022-12-29T00:39:34.637Z,59.80
2022-12-29T00:42:24.212Z,59.70
2022-12-29T00:44:50.848Z,59.70
2022-12-29T00:47:17.479Z,59.70
2022-12-29T00:49:44.974Z,59.70
2022-12-29T00:52:13.961Z,59.70
2022-12-29T00:54:41.724Z,59.70
2022-12-29T00:57:10.788Z,59.60
2022-12-29T00:59:38.501Z,59.60
2022-12-29T01:02:05.601Z,59.60
2022-12-29T01:04:32.610Z,59.60
2022-12-29T01:06:59.934Z,59.00
2022-12-29T01:09:44.925Z,59.50
2022-12-29T01:12:12.286Z,59.50
2022-12-29T01:14:39.277Z,59.50
2022-12-29T01:17:06.439Z,59.50
2022-12-29T01:19:33.215Z,59.50
2022-12-29T01:22:01.009Z,59.50
2022-12-29T01:24:27.706Z,59.50
2022-12-29T01:26:55.380Z,59.50
2022-12-29T01:29:22.174Z,59.40
2022-12-29T01:31:50.395Z,59.40
2022-12-29T01:34:17.380Z,59.40
2022-12-29T01:36:44.941Z,59.40
2022-12-29T01:39:11.766Z,59.40
2022-12-29T01:41:38.509Z,59.40
2022-12-29T01:44:43.524Z,59.40
2022-12-29T01:47:10.155Z,59.30
2022-12-29T01:49:36.938Z,59.30
2022-12-29T01:52:06.975Z,59.30
2022-12-29T01:54:33.826Z,59.30
2022-12-29T01:57:04.384Z,59.30
2022-12-29T01:59:35.415Z,59.20
2022-12-29T02:02:02.660Z,59.20
2022-12-29T02:04:32.173Z,59.20
2022-12-29T02:07:04.064Z,59.20
2022-12-29T02:09:31.561Z,59.20
2022-12-29T02:11:59.617Z,59.10
2022-12-29T02:14:26.364Z,59.10
2022-12-29T02:17:17.736Z,58.60
2022-12-29T02:20:21.277Z,59.20
2022-12-29T02:23:20.933Z,59.10
2022-12-29T02:26:01.926Z,59.10
2022-12-29T02:29:07.399Z,59.10
2022-12-29T02:31:51.736Z,60.00
2022-12-29T02:34:39.271Z,59.00
2022-12-29T02:37:11.433Z,58.50
2022-12-29T02:40:06.757Z,59.00
2022-12-29T02:42:49.813Z,58.90
2022-12-29T02:45:32.834Z,59.00
2022-12-29T02:48:24.304Z,58.90
2022-12-29T02:51:03.143Z,59.00
2022-12-29T02:53:51.495Z,58.90
2022-12-29T02:56:18.760Z,58.90
2022-12-29T02:58:45.405Z,58.90
2022-12-29T03:02:12.493Z,58.90
2022-12-29T03:05:10.690Z,58.90
2022-12-29T03:07:46.363Z,58.90
2022-12-29T03:10:39.288Z,58.80
2022-12-29T03:14:03.946Z,58.80
2022-12-29T03:16:43.453Z,58.80
2022-12-29T03:19:31.353Z,58.80
2022-12-29T03:22:21.122Z,59.40
2022-12-29T03:24:52.862Z,58.80
2022-12-29T03:27:44.708Z,58.30
2022-12-29T03:30:12.502Z,58.80
2022-12-29T03:32:51.317Z,58.70
2022-12-29T03:35:21.773Z,58.70
2022-12-29T03:38:08.441Z,58.20
2022-12-29T03:40:35.556Z,58.70
2022-12-29T03:43:04.062Z,58.70
2022-12-29T03:45:30.658Z,58.70
2022-12-29T03:47:57.337Z,58.70
2022-12-29T03:50:23.937Z,58.70
2022-12-29T03:52:50.604Z,58.60
2022-12-29T03:55:17.364Z,58.70
2022-12-29T03:57:45.352Z,58.10
2022-12-29T04:00:12.596Z,58.60
2022-12-29T04:02:39.487Z,58.60
2022-12-29T04:05:06.936Z,58.70
2022-12-29T04:07:34.260Z,58.60
2022-12-29T04:10:00.888Z,58.50
2022-12-29T04:12:27.626Z,58.60
2022-12-29T04:14:54.262Z,58.60
2022-12-29T04:17:20.838Z,59.20
2022-12-29T04:19:47.459Z,58.60
2022-12-29T04:22:14.102Z,58.60
2022-12-29T04:24:41.018Z,58.60
2022-12-29T04:27:07.645Z,58.00
2022-12-29T04:29:34.336Z,58.60
2022-12-29T04:32:00.964Z,58.50
2022-12-29T04:34:27.563Z,58.50
2022-12-29T04:36:54.799Z,58.00
2022-12-29T04:39:21.472Z,58.50
2022-12-29T04:41:48.084Z,58.50
2022-12-29T04:44:14.694Z,58.50
2022-12-29T04:46:41.360Z,58.50
2022-12-29T04:49:09.511Z,58.50
2022-12-29T04:51:36.491Z,58.50
2022-12-29T04:54:03.249Z,58.50
2022-12-29T04:56:29.881Z,58.50
2022-12-29T04:58:56.453Z,58.50
2022-12-29T05:01:23.136Z,58.50
2022-12-29T05:03:52.496Z,58.50
2022-12-29T05:06:19.157Z,58.50
2022-12-29T05:08:45.883Z,58.00
2022-12-29T05:11:12.594Z,58.50
2022-12-29T05:13:39.194Z,58.50
2022-12-29T05:16:06.236Z,58.40
2022-12-29T05:18:32.893Z,58.40
2022-12-29T05:21:00.182Z,58.40
2022-12-29T05:23:26.780Z,58.40
2022-12-29T05:25:53.374Z,58.50
2022-12-29T05:28:19.956Z,58.40
2022-12-29T05:30:50.503Z,58.40
2022-12-29T05:33:18.843Z,58.40
2022-12-29T05:35:45.984Z,58.40
2022-12-29T05:38:12.629Z,58.50
2022-12-29T05:40:39.984Z,58.50
2022-12-29T05:43:06.554Z,58.50
2022-12-29T05:45:34.288Z,58.50
2022-12-29T05:48:00.882Z,58.00
2022-12-29T05:50:27.977Z,58.50
2022-12-29T05:52:54.609Z,58.50
2022-12-29T05:55:21.318Z,58.50
2022-12-29T05:57:48.030Z,58.50
2022-12-29T06:00:15.193Z,58.50
2022-12-29T06:02:43.023Z,58.50
2022-12-29T06:05:09.946Z,58.50
2022-12-29T06:07:36.570Z,58.50
2022-12-29T06:10:03.673Z,58.50
2022-12-29T06:12:30.280Z,58.50
2022-12-29T06:14:56.909Z,58.50
2022-12-29T06:17:23.597Z,58.10
2022-12-29T06:19:50.466Z,58.50
2022-12-29T06:22:17.083Z,58.50
2022-12-29T06:24:44.241Z,58.40
2022-12-29T06:27:10.822Z,58.40
2022-12-29T06:29:37.986Z,58.50
2022-12-29T06:32:04.976Z,58.50
2022-12-29T06:34:31.640Z,58.50
2022-12-29T06:36:58.651Z,58.50
2022-12-29T06:39:25.300Z,58.50
2022-12-29T06:41:55.300Z,58.50
2022-12-29T06:44:22.926Z,58.50
2022-12-29T06:46:50.284Z,58.40
2022-12-29T06:49:17.280Z,57.90
2022-12-29T06:51:43.938Z,58.50
2022-12-29T06:54:10.648Z,58.40
2022-12-29T06:56:37.279Z,58.40
2022-12-29T06:59:04.134Z,58.40
2022-12-29T07:01:30.903Z,58.40
2022-12-29T07:03:58.382Z,58.40
2022-12-29T07:06:25.073Z,58.40
2022-12-29T07:08:51.749Z,57.90
2022-12-29T07:11:18.348Z,58.40
2022-12-29T07:13:45.086Z,58.30
2022-12-29T07:16:11.925Z,58.30
2022-12-29T07:18:38.723Z,58.40
2022-12-29T07:21:05.616Z,58.30
2022-12-29T07:23:32.373Z,58.30
2022-12-29T07:26:07.417Z,58.30
2022-12-29T07:28:35.677Z,58.30
2022-12-29T07:31:02.601Z,58.40
2022-12-29T07:33:30.812Z,58.40
2022-12-29T07:36:00.244Z,58.30
2022-12-29T07:38:26.890Z,57.80
2022-12-29T07:40:58.134Z,58.30
2022-12-29T07:43:24.863Z,58.30
2022-12-29T07:45:51.574Z,58.30
2022-12-29T07:48:18.175Z,58.30
2022-12-29T07:50:44.793Z,58.30
2022-12-29T07:53:11.753Z,58.30
2022-12-29T07:55:38.343Z,58.30
2022-12-29T07:58:04.973Z,58.30
2022-12-29T08:00:31.579Z,58.30
2022-12-29T08:02:58.220Z,58.30
2022-12-29T08:05:24.838Z,58.40
2022-12-29T08:07:51.509Z,57.70
2022-12-29T08:10:18.605Z,58.30
2022-12-29T08:12:45.284Z,58.20
2022-12-29T08:15:13.130Z,58.30
2022-12-29T08:17:39.865Z,57.80
2022-12-29T08:20:07.028Z,58.30
2022-12-29T08:22:33.626Z,58.30
2022-12-29T08:25:00.216Z,58.30
2022-12-29T08:27:26.923Z,58.30
2022-12-29T08:29:53.629Z,58.20
2022-12-29T08:32:20.282Z,58.30
2022-12-29T08:34:47.004Z,58.30
2022-12-29T08:37:13.610Z,58.20
2022-12-29T08:39:40.260Z,58.30
2022-12-29T08:42:07.967Z,58.20
2022-12-29T08:44:34.595Z,58.20
2022-12-29T08:47:01.225Z,58.30
2022-12-29T08:49:27.806Z,58.20
2022-12-29T08:51:54.425Z,58.30
2022-12-29T08:54:21.010Z,58.20
2022-12-29T08:56:47.649Z,58.20
2022-12-29T08:59:14.377Z,58.30
2022-12-29T09:01:41.518Z,58.20
2022-12-29T09:04:17.828Z,58.20
2022-12-29T09:06:45.854Z,58.30
2022-12-29T09:09:13.340Z,58.30
2022-12-29T09:11:39.985Z,58.30
2022-12-29T09:14:06.655Z,58.30
2022-12-29T09:16:33.407Z,58.40
2022-12-29T09:19:00.710Z,58.50
2022-12-29T09:21:27.366Z,58.60
2022-12-29T09:23:54.024Z,58.60
2022-12-29T09:26:20.738Z,58.70
2022-12-29T09:28:48.028Z,58.60
2022-12-29T09:31:14.945Z,58.60
2022-12-29T09:33:41.616Z,58.60
2022-12-29T09:36:09.699Z,58.70
2022-12-29T09:38:36.878Z,58.90
2022-12-29T09:41:23.578Z,58.90
2022-12-29T09:44:25.761Z,59.20
2022-12-29T09:46:55.279Z,58.40
2022-12-29T09:49:46.759Z,58.90
2022-12-29T09:52:22.068Z,59.20
2022-12-29T09:55:11.958Z,59.80
2022-12-29T09:58:00.811Z,60.30
2022-12-29T10:00:58.366Z,60.20
2022-12-29T10:03:33.290Z,59.90
2022-12-29T10:06:13.033Z,60.10
2022-12-29T10:09:03.143Z,59.50
2022-12-29T10:11:33.090Z,60.20
2022-12-29T10:14:16.276Z,60.30
2022-12-29T10:16:48.788Z,60.10
2022-12-29T10:19:51.835Z,60.10
2022-12-29T10:22:53.810Z,60.30
2022-12-29T10:25:27.144Z,60.10
2022-12-29T10:27:57.698Z,60.20
2022-12-29T10:30:24.824Z,60.10
2022-12-29T10:32:59.090Z,60.40
2022-12-29T10:35:39.934Z,59.70
2022-12-29T10:38:42.285Z,59.70
2022-12-29T10:41:28.469Z,59.70
2022-12-29T10:43:57.781Z,59.70
2022-12-29T10:46:29.329Z,59.70
2022-12-29T10:48:55.939Z,59.90
2022-12-29T10:51:28.919Z,59.80
2022-12-29T10:54:05.767Z,59.80
2022-12-29T10:56:45.916Z,59.90
2022-12-29T10:59:26.694Z,59.90
2022-12-29T11:02:11.962Z,60.00
2022-12-29T11:05:00.743Z,60.00
2022-12-29T11:07:27.858Z,60.00
2022-12-29T11:09:54.876Z,60.00
2022-12-29T11:12:31.537Z,60.20
2022-12-29T11:15:08.541Z,60.00
2022-12-29T11:18:04.579Z,59.70
2022-12-29T11:20:40.555Z,60.00
2022-12-29T11:23:22.831Z,59.90
2022-12-29T11:26:10.776Z,59.80
2022-12-29T11:28:38.846Z,59.70
2022-12-29T11:31:07.332Z,59.70
2022-12-29T11:33:36.178Z,59.80
2022-12-29T11:36:17.128Z,59.80
2022-12-29T11:38:50.124Z,59.70
2022-12-29T11:41:26.088Z,59.70
2022-12-29T11:43:56.153Z,59.90
2022-12-29T11:46:33.465Z,60.40
2022-12-29T11:49:01.523Z,60.80
2022-12-29T11:51:45.636Z,61.00
2022-12-29T11:54:28.852Z,61.40
2022-12-29T11:56:56.394Z,61.60
2022-12-29T11:59:41.458Z,61.60
2022-12-29T12:02:31.072Z,61.60
2022-12-29T12:05:21.105Z,61.60
2022-12-29T12:08:05.167Z,61.60
2022-12-29T12:10:47.502Z,61.80
2022-12-29T12:13:30.570Z,61.80
2022-12-29T12:16:13.518Z,62.10
2022-12-29T12:18:47.236Z,62.00
2022-12-29T12:21:28.748Z,62.20
2022-12-29T12:24:16.206Z,62.10
2022-12-29T12:27:03.622Z,61.00
2022-12-29T12:29:37.459Z,61.60
2022-12-29T12:32:20.315Z,61.60
2022-12-29T12:34:49.045Z,62.00
2022-12-29T12:37:43.734Z,61.80
2022-12-29T12:40:35.709Z,61.60
2022-12-29T12:43:23.901Z,61.50
2022-12-29T12:45:53.537Z,61.40
2022-12-29T12:48:26.221Z,61.40
2022-12-29T12:51:00.648Z,61.40
2022-12-29T12:53:50.187Z,61.30
2022-12-29T12:56:33.978Z,61.20
2022-12-29T12:59:31.000Z,61.10
2022-12-29T13:02:26.590Z,61.00
2022-12-29T13:05:22.652Z,61.50
2022-12-29T13:08:12.094Z,60.70
2022-12-29T13:10:56.425Z,60.60
2022-12-29T13:13:39.796Z,60.60
2022-12-29T13:16:44.827Z,60.60
2022-12-29T13:19:30.351Z,60.40
2022-12-29T13:22:08.800Z,60.30
2022-12-29T13:24:56.944Z,60.30
2022-12-29T13:27:44.535Z,60.20
2022-12-29T13:30:19.000Z,60.10
2022-12-29T13:33:08.812Z,60.10
2022-12-29T13:36:01.052Z,60.10
2022-12-29T13:38:34.935Z,60.10
2022-12-29T13:41:13.955Z,60.30
2022-12-29T13:43:43.527Z,60.20
2022-12-29T13:46:17.671Z,60.20
2022-12-29T13:48:54.921Z,60.10
2022-12-29T13:51:28.003Z,60.20
2022-12-29T13:54:08.634Z,60.10
2022-12-29T13:56:49.483Z,60.10
2022-12-29T13:59:41.795Z,60.10
2022-12-29T14:02:25.547Z,60.10
2022-12-29T14:05:03.821Z,60.10
2022-12-29T14:07:38.486Z,60.00
2022-12-29T14:10:06.014Z,60.00
2022-12-29T14:12:41.453Z,60.10
2022-12-29T14:15:11.180Z,60.00
2022-12-29T14:17:40.497Z,60.00
2022-12-29T14:20:22.235Z,60.00
2022-12-29T14:23:10.657Z,59.90
2022-12-29T14:25:59.798Z,59.90
2022-12-29T14:28:31.774Z,59.80
2022-12-29T14:31:00.808Z,59.80
2022-12-29T14:33:30.703Z,59.80
2022-12-29T14:35:58.425Z,59.80
2022-12-29T14:38:28.134Z,57.90
2022-12-29T14:41:37.653Z,55.20
2022-12-29T14:44:20.876Z,55.90
2022-12-29T14:47:02.638Z,55.50
2022-12-29T14:49:32.950Z,56.40
2022-12-29T14:52:23.821Z,55.70
2022-12-29T14:55:20.928Z,55.80
2022-12-29T14:57:59.380Z,55.60
2022-12-29T15:00:32.297Z,55.50
2022-12-29T15:03:23.545Z,55.50
2022-12-29T15:05:57.930Z,55.50
2022-12-29T15:08:32.821Z,54.70
2022-12-29T15:11:16.076Z,55.30
2022-12-29T15:13:44.397Z,56.00
2022-12-29T15:16:40.447Z,56.50
2022-12-29T15:19:22.617Z,56.60
2022-12-29T15:21:49.592Z,56.70
2022-12-29T15:24:16.342Z,57.30
2022-12-29T15:26:54.190Z,56.90
2022-12-29T15:29:41.046Z,56.90
2022-12-29T15:32:22.485Z,57.00
2022-12-29T15:34:51.998Z,57.00
2022-12-29T15:37:22.688Z,57.20
2022-12-29T15:39:49.803Z,57.20
2022-12-29T15:42:27.892Z,57.20
2022-12-29T15:45:09.279Z,57.20
2022-12-29T15:47:37.405Z,57.40
2022-12-29T15:50:09.648Z,57.50
2022-12-29T15:52:39.887Z,58.10
2022-12-29T15:55:10.745Z,57.90
2022-12-29T15:57:42.399Z,58.00
2022-12-29T16:00:30.605Z,58.10
2022-12-29T16:03:00.834Z,58.00
2022-12-29T16:05:34.612Z,58.10
2022-12-29T16:08:01.741Z,57.80
2022-12-29T16:10:37.424Z,58.10
2022-12-29T16:13:13.481Z,58.30
2022-12-29T16:15:40.186Z,58.30
2022-12-29T16:18:17.277Z,57.80
2022-12-29T16:20:44.104Z,58.50
2022-12-29T16:23:22.956Z,58.70
2022-12-29T16:25:49.636Z,58.80
2022-12-29T16:28:39.694Z,58.30
2022-12-29T16:31:16.118Z,58.80
2022-12-29T16:33:51.791Z,58.80
2022-12-29T16:36:34.355Z,58.70
2022-12-29T16:39:20.369Z,58.80
2022-12-29T16:41:46.982Z,58.70
2022-12-29T16:44:18.544Z,58.70
2022-12-29T16:47:12.974Z,58.50
2022-12-29T16:49:43.021Z,59.10
2022-12-29T16:52:18.073Z,59.00
2022-12-29T16:55:01.865Z,59.00
2022-12-29T16:57:36.354Z,58.60
2022-12-29T17:00:07.521Z,59.10
2022-12-29T17:02:46.060Z,59.40
2022-12-29T17:05:14.935Z,59.40
2022-12-29T17:07:41.645Z,59.20
2022-12-29T17:10:08.666Z,59.60
2022-12-29T17:12:36.501Z,59.40
2022-12-29T17:15:13.469Z,59.40
2022-12-29T17:17:50.903Z,59.40
2022-12-29T17:20:20.933Z,59.40
2022-12-29T17:22:48.521Z,59.30
2022-12-29T17:25:18.323Z,59.90
2022-12-29T17:27:50.597Z,59.30
2022-12-29T17:30:21.644Z,59.30
2022-12-29T17:32:54.539Z,60.30
2022-12-29T17:35:22.651Z,59.60
2022-12-29T17:37:50.016Z,59.60
2022-12-29T17:40:26.456Z,59.80
2022-12-29T17:42:55.981Z,60.30
2022-12-29T17:45:28.365Z,60.30
2022-12-29T17:47:55.936Z,60.30
2022-12-29T17:50:25.991Z,60.40
2022-12-29T17:53:00.427Z,60.60
2022-12-29T17:55:34.691Z,60.70
2022-12-29T17:58:17.059Z,60.50
2022-12-29T18:00:43.953Z,61.10
2022-12-29T18:03:19.051Z,60.60
2022-12-29T18:05:45.925Z,60.80
2022-12-29T18:08:12.755Z,60.70
2022-12-29T18:10:40.156Z,60.90
2022-12-29T18:13:06.902Z,60.90
2022-12-29T18:15:36.723Z,61.00
2022-12-29T18:18:18.061Z,60.00
2022-12-29T18:20:46.160Z,60.80
2022-12-29T18:23:20.272Z,60.90
2022-12-29T18:25:54.204Z,60.60
2022-12-29T18:28:21.264Z,60.50
2022-12-29T18:30:47.992Z,60.60
2022-12-29T18:33:21.910Z,60.50
2022-12-29T18:35:55.764Z,60.40
2022-12-29T18:38:22.519Z,60.40
2022-12-29T18:40:50.218Z,60.40
2022-12-29T18:43:18.059Z,60.40
2022-12-29T18:45:45.944Z,60.40
2022-12-29T18:48:13.554Z,59.40
2022-12-29T18:50:40.359Z,55.70
2022-12-29T18:53:07.066Z,55.80
2022-12-29T18:55:33.732Z,57.00
2022-12-29T18:58:00.358Z,57.70
2022-12-29T19:00:26.996Z,57.70
2022-12-29T19:02:53.675Z,57.90
2022-12-29T19:05:23.596Z,57.80
2022-12-29T19:07:51.333Z,58.00
2022-12-29T19:10:19.419Z,58.10
2022-12-29T19:12:46.206Z,58.20
2022-12-29T19:15:26.457Z,58.20
2022-12-29T19:18:24.110Z,58.20
2022-12-29T19:20:43.064Z,58.20
2022-12-29T19:23:21.651Z,58.20
2022-12-29T19:25:49.530Z,58.20
2022-12-29T19:28:24.885Z,58.20
2022-12-29T19:30:53.153Z,58.30
2022-12-29T19:33:21.303Z,58.20
2022-12-29T19:35:48.291Z,58.30
2022-12-29T19:38:15.282Z,58.30
2022-12-29T19:40:48.450Z,58.50
2022-12-29T19:43:15.608Z,58.60
2022-12-29T19:45:44.007Z,57.80
2022-12-29T19:48:19.003Z,58.20
2022-12-29T19:50:46.101Z,58.30
2022-12-29T19:53:13.400Z,57.80
2022-12-29T19:55:46.802Z,58.40
2022-12-29T19:58:13.940Z,58.20
2022-12-29T20:00:42.618Z,58.20
2022-12-29T20:03:09.815Z,58.30
2022-12-29T20:05:37.072Z,58.40
2022-12-29T20:08:03.714Z,59.00
2022-12-29T20:10:30.354Z,58.30
2022-12-29T20:12:56.961Z,58.30
2022-12-29T20:15:23.695Z,58.40
2022-12-29T20:20:37.041Z,58.40
2022-12-29T20:23:03.725Z,58.40
2022-12-29T20:25:47.182Z,58.90
2022-12-29T20:28:15.529Z,59.60
2022-12-29T20:30:42.190Z,59.20
2022-12-29T20:33:09.055Z,59.10
2022-12-29T20:35:37.359Z,59.10
2022-12-29T20:38:05.260Z,59.10
2022-12-29T20:40:32.157Z,59.10
2022-12-29T20:42:58.791Z,59.20
2022-12-29T20:45:25.766Z,59.10
2022-12-29T20:47:52.513Z,59.10
2022-12-29T20:50:19.101Z,59.10
2022-12-29T20:52:46.681Z,59.10
2022-12-29T20:55:13.358Z,59.20
2022-12-29T20:58:21.466Z,59.20
2022-12-29T21:00:26.951Z,59.20
2022-12-29T21:02:55.475Z,59.20
2022-12-29T21:05:24.873Z,59.20
2022-12-29T21:07:52.781Z,59.30
2022-12-29T21:10:19.815Z,59.30
2022-12-29T21:12:46.876Z,59.30
2022-12-29T21:15:15.341Z,59.30
2022-12-29T21:17:43.734Z,59.30
2022-12-29T21:20:19.661Z,59.40
2022-12-29T21:22:47.872Z,59.40
2022-12-29T21:25:14.694Z,59.50
2022-12-29T21:27:44.479Z,59.50
2022-12-29T21:30:12.296Z,59.50
2022-12-29T21:32:39.767Z,59.70
2022-12-29T21:35:07.467Z,59.70
2022-12-29T21:37:34.448Z,59.60
2022-12-29T21:40:01.229Z,59.70
2022-12-29T21:42:27.872Z,59.80
2022-12-29T21:45:19.833Z,59.70
2022-12-29T21:48:05.766Z,59.80
2022-12-29T21:50:32.490Z,59.80
2022-12-29T21:52:59.158Z,59.80
2022-12-29T21:55:25.759Z,59.90
2022-12-29T21:58:10.941Z,59.90
2022-12-29T22:00:55.908Z,59.90
2022-12-29T22:03:41.260Z,59.80
2022-12-29T22:06:29.246Z,59.80
2022-12-29T22:09:14.522Z,59.80
2022-12-29T22:11:59.951Z,59.80
2022-12-29T22:14:26.541Z,59.40
2022-12-29T22:16:53.110Z,59.90
2022-12-29T22:19:19.738Z,60.00
2022-12-29T22:21:46.385Z,60.00
2022-12-29T22:24:13.010Z,60.00
2022-12-29T22:26:39.662Z,60.00
2022-12-29T22:29:06.292Z,60.00
2022-12-29T22:31:33.628Z,60.00
2022-12-29T22:34:02.835Z,59.50
2022-12-29T22:36:30.280Z,60.00
2022-12-29T22:38:57.055Z,60.00
2022-12-29T22:41:23.714Z,60.00
2022-12-29T22:43:50.292Z,59.50
2022-12-29T22:46:16.926Z,60.00
2022-12-29T22:48:43.594Z,60.00
2022-12-29T22:51:10.188Z,59.90
2022-12-29T22:53:36.774Z,60.10
2022-12-29T22:56:08.031Z,60.20
2022-12-29T22:58:34.993Z,60.40
2022-12-29T23:01:02.535Z,60.50
2022-12-29T23:03:29.255Z,60.90
2022-12-29T23:06:00.808Z,61.00
2022-12-29T23:08:37.309Z,61.00
2022-12-29T23:11:05.593Z,61.30
2022-12-29T23:13:32.561Z,60.80
2022-12-29T23:15:59.442Z,61.40
2022-12-29T23:18:26.992Z,61.40
2022-12-29T23:20:53.632Z,61.30
2022-12-29T23:23:46.256Z,61.40
2022-12-29T23:26:16.311Z,61.50
2022-12-29T23:28:42.965Z,61.50
2022-12-29T23:31:09.776Z,61.40
2022-12-29T23:33:36.859Z,61.50
2022-12-29T23:36:04.301Z,61.40
2022-12-29T23:38:31.006Z,61.30
2022-12-29T23:40:57.661Z,61.30
2022-12-29T23:43:24.295Z,61.20
2022-12-29T23:45:51.415Z,61.10
2022-12-29T23:48:18.769Z,61.30
2022-12-29T23:50:45.677Z,61.20
2022-12-29T23:53:12.721Z,61.00
2022-12-29T23:55:42.479Z,61.00
2022-12-29T23:58:09.783Z,60.90
